YQF weather

Red Deer Regional Airport
Red Deer, Alberta, Canada

Public forecast

Using degrees Celsius for public forecast. Weather courtesy of forecast.io.

Current aviation weather report (METAR) for Red Deer Regional Airport

Retrieved 2020/03/30 09:11 UTC (27 minutes ago):

CYQF 300911Z 36010KT 8SM -SN BKN015 OVC033 M07/M09 A2984 RMK SC5SC3 SLP156

Aviation forecast (TAF) for Red Deer Regional Airport

Retrieved 2020/03/30 06:42 UTC (3 hours ago):

TAF CYQF 300539Z 3006/3018 36010KT P6SM OVC015 TEMPO 3006/3016 5SM -SN OVC008 FM301600 08010KT 4SM -SN BKN015 OVC025 RMK NXT FCST BY 301200Z